createdAt,value
2022-12-31T00:00:08.977Z,96029.94
2022-12-31T00:02:36.338Z,96020.66
2022-12-31T00:05:04.560Z,96024.78
2022-12-31T00:09:57.627Z,96024.41
2022-12-31T00:12:25.525Z,96019.66
2022-12-31T00:14:52.198Z,96015.31
2022-12-31T00:17:19.052Z,96004.34
2022-12-31T00:19:45.677Z,96014.81
2022-12-31T00:22:12.354Z,96012.19
2022-12-31T00:24:39.023Z,96028.94
2022-12-31T00:27:05.654Z,96029.09
2022-12-31T00:29:32.286Z,96036.91
2022-12-31T00:31:58.969Z,96042.72
2022-12-31T00:34:25.680Z,96042.41
2022-12-31T00:36:53.221Z,96042.84
2022-12-31T00:39:20.007Z,96047.47
2022-12-31T00:41:46.863Z,96046.72
2022-12-31T00:44:14.151Z,96049.75
2022-12-31T00:49:07.151Z,96055.97
2022-12-31T00:51:33.837Z,96066.78
2022-12-31T00:54:00.572Z,96068.34
2022-12-31T00:56:29.500Z,96061.34
2022-12-31T00:58:56.577Z,96062.91
2022-12-31T01:01:27.946Z,96063.28
2022-12-31T01:03:58.609Z,96066.34
2022-12-31T01:06:25.307Z,96075.59
2022-12-31T01:08:53.726Z,96068.66
2022-12-31T01:11:22.301Z,96076.81
2022-12-31T01:14:00.198Z,96077.22
2022-12-31T01:16:32.804Z,96068.41
2022-12-31T01:19:01.391Z,96073.41
2022-12-31T01:21:28.646Z,96070.38
2022-12-31T01:23:55.348Z,96064.97
2022-12-31T01:26:22.073Z,96070.38
2022-12-31T01:28:48.849Z,96050.75
2022-12-31T01:31:17.808Z,96072.31
2022-12-31T01:33:45.533Z,96081.91
2022-12-31T01:36:25.068Z,96072.31
2022-12-31T01:38:53.030Z,96075.00
2022-12-31T01:41:23.278Z,96085.00
2022-12-31T01:43:54.801Z,96086.53
2022-12-31T01:46:33.996Z,96090.00
2022-12-31T01:49:09.441Z,96090.38
2022-12-31T01:51:37.649Z,96085.34
2022-12-31T01:54:09.343Z,96086.13
2022-12-31T01:56:39.324Z,96088.06
2022-12-31T01:59:09.963Z,96089.59
2022-12-31T02:01:38.546Z,96095.75
2022-12-31T02:04:11.921Z,96092.66
2022-12-31T02:06:46.919Z,96093.81
2022-12-31T02:09:13.971Z,96087.69
2022-12-31T02:11:40.731Z,96078.81
2022-12-31T02:14:18.714Z,96097.25
2022-12-31T02:17:10.835Z,96091.50
2022-12-31T02:20:00.507Z,96098.84
2022-12-31T02:22:57.944Z,96103.13
2022-12-31T02:25:43.126Z,96102.31
2022-12-31T02:28:28.295Z,96112.34
2022-12-31T02:31:07.555Z,96102.72
2022-12-31T02:33:41.701Z,96111.19
2022-12-31T02:36:19.821Z,96116.19
2022-12-31T02:38:48.678Z,96116.56
2022-12-31T02:41:36.795Z,96111.19
2022-12-31T02:44:27.249Z,96118.13
2022-12-31T02:47:09.120Z,96119.25
2022-12-31T02:49:53.766Z,96112.72
2022-12-31T02:52:42.237Z,96125.44
2022-12-31T02:55:18.143Z,96125.44
2022-12-31T02:58:06.003Z,96123.13
2022-12-31T03:00:53.357Z,96129.28
2022-12-31T03:03:21.589Z,96104.66
2022-12-31T03:05:50.062Z,96105.78
2022-12-31T03:08:24.865Z,96100.78
2022-12-31T03:10:52.210Z,96101.97
2022-12-31T03:13:18.816Z,96113.53
2022-12-31T03:15:45.460Z,96092.75
2022-12-31T03:18:15.581Z,96115.44
2022-12-31T03:21:06.917Z,96108.88
2022-12-31T03:23:42.815Z,96093.81
2022-12-31T03:26:11.470Z,96106.53
2022-12-31T03:28:41.064Z,96098.38
2022-12-31T03:31:08.262Z,96107.25
2022-12-31T03:33:41.089Z,96105.31
2022-12-31T03:36:11.548Z,96097.97
2022-12-31T03:38:38.498Z,96107.19
2022-12-31T03:41:05.631Z,96110.59
2022-12-31T03:43:32.321Z,96097.91
2022-12-31T03:46:01.510Z,96112.13
2022-12-31T03:48:28.346Z,96117.91
2022-12-31T03:50:55.340Z,96121.34
2022-12-31T03:53:23.251Z,96120.53
2022-12-31T03:55:53.469Z,96132.03
2022-12-31T03:58:20.457Z,96117.03
2022-12-31T04:00:47.118Z,96123.91
2022-12-31T04:03:14.211Z,96116.66
2022-12-31T04:05:41.295Z,96103.53
2022-12-31T04:08:07.990Z,96133.56
2022-12-31T04:10:34.733Z,96120.44
2022-12-31T04:13:04.433Z,96138.56
2022-12-31T04:15:31.212Z,96127.75
2022-12-31T04:17:58.446Z,96132.84
2022-12-31T04:20:25.243Z,96127.34
2022-12-31T04:22:51.871Z,96094.53
2022-12-31T04:25:18.657Z,96128.50
2022-12-31T04:27:45.407Z,96128.13
2022-12-31T04:30:13.280Z,96133.59
2022-12-31T04:32:40.160Z,96147.50
2022-12-31T04:35:07.515Z,96133.63
2022-12-31T04:37:34.121Z,96135.53
2022-12-31T04:40:05.906Z,96144.00
2022-12-31T04:42:33.831Z,96151.69
2022-12-31T04:45:00.616Z,96152.78
2022-12-31T04:47:27.319Z,96162.00
2022-12-31T04:49:54.023Z,96156.28
2022-12-31T04:52:20.800Z,96154.25
2022-12-31T04:54:47.451Z,96154.06
2022-12-31T04:57:14.143Z,96170.53
2022-12-31T04:59:40.881Z,96169.41
2022-12-31T05:02:07.653Z,96179.34
2022-12-31T05:04:34.446Z,96177.41
2022-12-31T05:07:01.053Z,96175.44
2022-12-31T05:09:28.436Z,96156.91
2022-12-31T05:11:55.132Z,96179.78
2022-12-31T05:14:21.839Z,96180.44
2022-12-31T05:16:48.557Z,96190.53
2022-12-31T05:19:15.414Z,96192.53
2022-12-31T05:21:41.992Z,96189.41
2022-12-31T05:24:08.874Z,96198.75
2022-12-31T05:26:35.575Z,96185.69
2022-12-31T05:29:02.147Z,96183.88
2022-12-31T05:31:28.764Z,96203.88
2022-12-31T05:33:55.387Z,96195.81
2022-12-31T05:36:21.981Z,96183.22
2022-12-31T05:38:48.578Z,96197.88
2022-12-31T05:41:15.269Z,96197.44
2022-12-31T05:43:41.938Z,96207.81
2022-12-31T05:46:08.940Z,96211.16
2022-12-31T05:48:37.053Z,96190.19
2022-12-31T05:51:03.761Z,96201.31
2022-12-31T05:53:30.440Z,96217.06
2022-12-31T05:55:57.032Z,96211.66
2022-12-31T05:58:23.768Z,96217.44
2022-12-31T06:00:51.869Z,96196.91
2022-12-31T06:03:18.756Z,96225.78
2022-12-31T06:05:45.464Z,96199.63
2022-12-31T06:08:12.275Z,96224.00
2022-12-31T06:10:39.783Z,96217.94
2022-12-31T06:13:06.756Z,96231.91
2022-12-31T06:15:33.615Z,96240.56
2022-12-31T06:18:00.371Z,96215.28
2022-12-31T06:20:27.115Z,96239.31
2022-12-31T06:22:53.898Z,96220.16
2022-12-31T06:25:20.651Z,96241.78
2022-12-31T06:27:47.365Z,96251.03
2022-12-31T06:30:14.554Z,96226.34
2022-12-31T06:32:42.223Z,96238.28
2022-12-31T06:35:09.320Z,96240.19
2022-12-31T06:37:36.037Z,96238.31
2022-12-31T06:40:03.278Z,96258.72
2022-12-31T06:42:31.135Z,96265.66
2022-12-31T06:44:59.196Z,96262.56
2022-12-31T06:47:26.434Z,96249.06
2022-12-31T06:49:53.313Z,96253.28
2022-12-31T06:52:20.553Z,96276.44
2022-12-31T06:54:47.679Z,96264.88
2022-12-31T06:57:14.592Z,96272.22
2022-12-31T06:59:41.573Z,96279.50
2022-12-31T07:02:21.325Z,96271.84
2022-12-31T07:05:02.394Z,96277.22
2022-12-31T07:07:48.358Z,96274.91
2022-12-31T07:10:29.976Z,96278.38
2022-12-31T07:13:02.940Z,96291.88
2022-12-31T07:15:53.959Z,96294.94
2022-12-31T07:19:13.267Z,96296.47
2022-12-31T07:21:41.535Z,96283.34
2022-12-31T07:24:10.137Z,96297.63
2022-12-31T07:26:54.287Z,96299.16
2022-12-31T07:29:34.753Z,96316.91
2022-12-31T07:32:19.698Z,96305.69
2022-12-31T07:34:55.698Z,96302.66
2022-12-31T07:37:37.712Z,96303.78
2022-12-31T07:40:24.025Z,96305.66
2022-12-31T07:43:15.113Z,96314.88
2022-12-31T07:46:15.316Z,96309.03
2022-12-31T07:48:42.139Z,96321.75
2022-12-31T07:51:10.976Z,96317.09
2022-12-31T07:53:38.205Z,96303.97
2022-12-31T07:56:07.203Z,96312.03
2022-12-31T07:59:02.658Z,96325.75
2022-12-31T08:01:35.958Z,96322.56
2022-12-31T08:04:09.614Z,96319.72
2022-12-31T08:06:48.385Z,96327.44
2022-12-31T08:09:46.113Z,96328.88
2022-12-31T08:12:14.219Z,96332.66
2022-12-31T08:14:47.062Z,96333.06
2022-12-31T08:17:15.811Z,96304.16
2022-12-31T08:19:43.149Z,96322.25
2022-12-31T08:22:19.670Z,96324.03
2022-12-31T08:25:13.380Z,96334.31
2022-12-31T08:28:07.819Z,96322.13
2022-12-31T08:30:41.725Z,96318.81
2022-12-31T08:33:26.322Z,96319.66
2022-12-31T08:36:17.328Z,96333.69
2022-12-31T08:38:57.052Z,96330.75
2022-12-31T08:41:42.712Z,96331.53
2022-12-31T08:44:28.593Z,96335.84
2022-12-31T08:47:40.361Z,96264.97
2022-12-31T08:50:13.005Z,96290.53
2022-12-31T08:52:39.742Z,96295.81
2022-12-31T08:55:06.953Z,96307.09
2022-12-31T08:58:06.250Z,96311.94
2022-12-31T09:00:35.127Z,96319.03
2022-12-31T09:03:07.730Z,96325.75
2022-12-31T09:06:02.482Z,96320.66
2022-12-31T09:08:44.241Z,96314.38
2022-12-31T09:11:22.863Z,96310.22
2022-12-31T09:14:08.453Z,96316.16
2022-12-31T09:17:04.709Z,96313.00
2022-12-31T09:19:31.670Z,96305.19
2022-12-31T09:21:58.869Z,96307.84
2022-12-31T09:24:25.969Z,96301.44
2022-12-31T09:27:27.218Z,96295.03
2022-12-31T09:30:13.549Z,96296.81
2022-12-31T09:32:49.202Z,96297.38
2022-12-31T09:35:29.864Z,96286.56
2022-12-31T09:38:07.905Z,96292.00
2022-12-31T09:40:54.048Z,96265.00
2022-12-31T09:44:00.873Z,96270.38
2022-12-31T09:46:43.424Z,96268.00
2022-12-31T09:49:28.264Z,96259.13
2022-12-31T09:52:38.482Z,96253.41
2022-12-31T09:55:17.201Z,96259.84
2022-12-31T09:58:24.940Z,96251.69
2022-12-31T10:01:29.319Z,96250.00
2022-12-31T10:04:17.607Z,96254.69
2022-12-31T10:07:14.518Z,96248.22
2022-12-31T10:10:03.716Z,96245.75
2022-12-31T10:12:55.152Z,96242.13
2022-12-31T10:15:33.934Z,96242.97
2022-12-31T10:18:06.200Z,96238.69
2022-12-31T10:20:58.139Z,96231.03
2022-12-31T10:23:47.591Z,96222.91
2022-12-31T10:26:37.654Z,96216.25
2022-12-31T10:29:25.895Z,96216.00
2022-12-31T10:32:05.955Z,96228.94
2022-12-31T10:34:55.435Z,96186.56
2022-12-31T10:37:28.053Z,96205.03
2022-12-31T10:40:21.413Z,96199.59
2022-12-31T10:42:59.798Z,96211.94
2022-12-31T10:45:44.797Z,96207.47
2022-12-31T10:48:14.372Z,96208.47
2022-12-31T10:50:59.715Z,96200.81
2022-12-31T10:53:26.367Z,96195.69
2022-12-31T10:55:58.977Z,96201.22
2022-12-31T10:58:45.920Z,96203.66
2022-12-31T11:01:33.135Z,96205.88
2022-12-31T11:04:36.282Z,96198.25
2022-12-31T11:07:41.443Z,96204.50
2022-12-31T11:10:32.715Z,96196.56
2022-12-31T11:13:22.123Z,96185.31
2022-12-31T11:16:19.567Z,96194.25
2022-12-31T11:19:07.062Z,96182.59
2022-12-31T11:22:11.291Z,96173.97
2022-12-31T11:24:47.414Z,96168.97
2022-12-31T11:27:19.960Z,96176.00
2022-12-31T11:29:56.041Z,96164.66
2022-12-31T11:32:29.250Z,96166.06
2022-12-31T11:35:25.587Z,96166.00
2022-12-31T11:38:00.739Z,96162.47
2022-12-31T11:40:54.341Z,96166.94
2022-12-31T11:43:27.413Z,96152.22
2022-12-31T11:46:16.958Z,96164.03
2022-12-31T11:49:26.481Z,96158.44
2022-12-31T11:52:10.695Z,96159.53
2022-12-31T11:54:46.325Z,96157.69
2022-12-31T11:57:21.772Z,96156.03
2022-12-31T11:59:48.487Z,96146.66
2022-12-31T12:02:26.770Z,96161.66
2022-12-31T12:04:56.862Z,96166.34
2022-12-31T12:07:24.226Z,96149.91
2022-12-31T12:09:54.532Z,96152.66
2022-12-31T12:12:21.751Z,96159.53
2022-12-31T12:14:55.055Z,96169.28
2022-12-31T12:17:33.001Z,96162.72
2022-12-31T12:20:18.187Z,96151.16
2022-12-31T12:22:54.378Z,96158.47
2022-12-31T12:25:24.417Z,96167.81
2022-12-31T12:27:52.064Z,96152.84
2022-12-31T12:30:21.493Z,96157.09
2022-12-31T12:33:04.867Z,96159.97
2022-12-31T12:35:34.123Z,96157.13
2022-12-31T12:38:06.111Z,96164.72
2022-12-31T12:40:34.639Z,96167.75
2022-12-31T12:43:02.746Z,96169.59
2022-12-31T12:45:51.718Z,96131.31
2022-12-31T12:48:41.242Z,96169.72
2022-12-31T12:51:36.640Z,96162.66
2022-12-31T12:54:25.661Z,96168.28
2022-12-31T12:57:17.658Z,96161.66
2022-12-31T12:59:57.573Z,96178.56
2022-12-31T13:02:27.200Z,96176.28
2022-12-31T13:05:28.386Z,96130.25
2022-12-31T13:08:28.009Z,96173.81
2022-12-31T13:11:33.300Z,96174.09
2022-12-31T13:14:14.862Z,96182.78
2022-12-31T13:17:14.344Z,96180.56
2022-12-31T13:20:13.007Z,96181.56
2022-12-31T13:22:52.369Z,96178.97
2022-12-31T13:25:52.568Z,96186.78
2022-12-31T13:28:19.867Z,96174.63
2022-12-31T13:30:52.327Z,96182.84
2022-12-31T13:33:27.050Z,96187.72
2022-12-31T13:36:04.864Z,96194.47
2022-12-31T13:38:42.129Z,96188.34
2022-12-31T13:41:30.524Z,96183.47
2022-12-31T13:44:08.904Z,96179.31
2022-12-31T13:47:07.050Z,96182.19
2022-12-31T13:49:57.774Z,96190.88
2022-12-31T13:52:39.950Z,96184.41
2022-12-31T13:55:24.207Z,96185.41
2022-12-31T13:58:01.823Z,96187.84
2022-12-31T14:00:41.022Z,96170.97
2022-12-31T14:03:21.599Z,96201.66
2022-12-31T14:05:48.159Z,96197.84
2022-12-31T14:08:15.949Z,96178.19
2022-12-31T14:10:45.679Z,96185.69
2022-12-31T14:13:34.602Z,96190.34
2022-12-31T14:16:01.659Z,96201.19
2022-12-31T14:18:54.453Z,96186.84
2022-12-31T14:21:48.710Z,96174.31
2022-12-31T14:24:32.907Z,96191.47
2022-12-31T14:27:05.498Z,96159.66
2022-12-31T14:29:35.516Z,96195.94
2022-12-31T14:32:10.031Z,96186.38
2022-12-31T14:34:45.424Z,96187.44
2022-12-31T14:37:17.614Z,96167.78
2022-12-31T14:39:59.384Z,96187.28
2022-12-31T14:42:53.259Z,96186.28
2022-12-31T14:45:38.602Z,96191.13
2022-12-31T14:48:21.547Z,96188.28
2022-12-31T14:50:49.311Z,96194.91
2022-12-31T14:53:24.966Z,96188.53
2022-12-31T14:55:59.420Z,96189.13
2022-12-31T14:58:35.799Z,96193.25
2022-12-31T15:01:19.074Z,96200.59
2022-12-31T15:03:46.496Z,96203.19
2022-12-31T15:06:31.797Z,96193.50
2022-12-31T15:09:08.220Z,96194.38
2022-12-31T15:11:46.253Z,96196.56
2022-12-31T15:14:50.592Z,96190.91
2022-12-31T15:17:39.188Z,96208.00
2022-12-31T15:20:27.490Z,96209.84
2022-12-31T15:22:54.840Z,96218.41
2022-12-31T15:25:38.424Z,96224.50
2022-12-31T15:28:28.816Z,96230.50
2022-12-31T15:31:02.097Z,96204.00
2022-12-31T15:33:37.845Z,96226.63
2022-12-31T15:36:21.373Z,96227.44
2022-12-31T15:38:49.541Z,96229.06
2022-12-31T15:41:19.248Z,96219.38
2022-12-31T15:44:01.898Z,96225.31
2022-12-31T15:46:37.104Z,96216.66
2022-12-31T15:49:25.977Z,96228.56
2022-12-31T15:52:08.535Z,96231.72
2022-12-31T15:54:56.961Z,96233.75
2022-12-31T15:57:32.947Z,96233.09
2022-12-31T16:00:04.807Z,96238.44
2022-12-31T16:02:31.782Z,96223.88
2022-12-31T16:04:58.763Z,96253.50
2022-12-31T16:07:27.442Z,96256.28
2022-12-31T16:09:57.362Z,96267.69
2022-12-31T16:12:32.698Z,96265.75
2022-12-31T16:15:01.681Z,96247.25
2022-12-31T16:17:34.065Z,96272.31
2022-12-31T16:20:20.025Z,96267.31
2022-12-31T16:22:56.220Z,96277.31
2022-12-31T16:25:33.125Z,96290.69
2022-12-31T16:28:02.645Z,96293.41
2022-12-31T16:30:31.284Z,96290.09
2022-12-31T16:33:04.479Z,96286.00
2022-12-31T16:35:33.101Z,96278.94
2022-12-31T16:38:19.211Z,96293.09
2022-12-31T16:41:01.047Z,96304.53
2022-12-31T16:43:37.329Z,96307.78
2022-12-31T16:46:27.595Z,96303.63
2022-12-31T16:48:57.050Z,96306.03
2022-12-31T16:51:27.604Z,96316.88
2022-12-31T16:53:54.885Z,96304.94
2022-12-31T16:56:32.127Z,96299.84
2022-12-31T16:59:03.818Z,96301.81
2022-12-31T17:01:34.292Z,96304.63
2022-12-31T17:04:10.487Z,96238.50
2022-12-31T17:06:37.207Z,96322.75
2022-12-31T17:09:12.843Z,96327.72
2022-12-31T17:11:50.777Z,96311.50
2022-12-31T17:14:20.448Z,96328.78
2022-12-31T17:17:06.842Z,96330.75
2022-12-31T17:19:47.537Z,96334.75
2022-12-31T17:22:32.806Z,96330.97
2022-12-31T17:25:06.327Z,96334.06
2022-12-31T17:27:34.499Z,96328.69
2022-12-31T17:30:35.682Z,96344.25
2022-12-31T17:33:28.799Z,96341.63
2022-12-31T17:36:15.660Z,96338.84
2022-12-31T17:38:42.846Z,96336.78
2022-12-31T17:41:17.253Z,96344.78
2022-12-31T17:43:44.136Z,96336.91
2022-12-31T17:46:16.401Z,96343.44
2022-12-31T17:48:45.175Z,96344.84
2022-12-31T17:51:11.981Z,96345.63
2022-12-31T17:53:38.653Z,96340.59
2022-12-31T17:56:07.632Z,96328.28
2022-12-31T17:58:54.086Z,96349.22
2022-12-31T18:01:22.952Z,96341.50
2022-12-31T18:03:50.310Z,96346.84
2022-12-31T18:06:19.238Z,96335.66
2022-12-31T18:08:46.055Z,96342.78
2022-12-31T18:11:19.817Z,96340.53
2022-12-31T18:13:47.229Z,96329.81
2022-12-31T18:16:14.563Z,96334.00
2022-12-31T18:18:42.375Z,96332.38
2022-12-31T18:21:26.830Z,96336.34
2022-12-31T18:26:21.746Z,96345.81
2022-12-31T18:28:49.085Z,96351.34
2022-12-31T18:31:24.837Z,96358.44
2022-12-31T18:33:53.179Z,96369.38
2022-12-31T18:36:22.519Z,96353.38
2022-12-31T18:38:49.210Z,96361.97
2022-12-31T18:41:23.534Z,96378.19
2022-12-31T18:43:50.903Z,96371.66
2022-12-31T18:46:20.021Z,96385.13
2022-12-31T18:48:47.026Z,96378.91
2022-12-31T18:51:31.243Z,96383.13
2022-12-31T18:54:00.038Z,96340.31
2022-12-31T18:56:27.634Z,96370.34
2022-12-31T18:58:54.543Z,96367.63
2022-12-31T19:01:27.138Z,96375.63
2022-12-31T19:03:56.552Z,96377.53
2022-12-31T19:06:23.679Z,96367.09
2022-12-31T19:08:50.461Z,96372.84
2022-12-31T19:11:17.611Z,96370.44
2022-12-31T19:13:44.266Z,96364.69
2022-12-31T19:16:11.513Z,96379.66
2022-12-31T19:18:38.189Z,96377.34
2022-12-31T19:21:05.649Z,96373.38
2022-12-31T19:23:32.987Z,96371.09
2022-12-31T19:25:59.613Z,96373.47
2022-12-31T19:28:27.818Z,96378.91
2022-12-31T19:30:54.721Z,96372.34
2022-12-31T19:33:21.394Z,96368.50
2022-12-31T19:35:48.354Z,96348.47
2022-12-31T19:38:19.079Z,96370.50
2022-12-31T19:40:46.996Z,96351.00
2022-12-31T19:43:15.762Z,96382.97
2022-12-31T19:45:43.793Z,96329.44
2022-12-31T19:48:25.792Z,96362.56
2022-12-31T19:50:57.193Z,96361.41
2022-12-31T19:53:26.067Z,96383.38
2022-12-31T19:55:53.613Z,96384.22
2022-12-31T19:58:26.142Z,96377.75
2022-12-31T20:00:58.445Z,96367.78
2022-12-31T20:03:29.104Z,96384.13
2022-12-31T20:06:08.196Z,96388.44
2022-12-31T20:08:36.959Z,96391.22
2022-12-31T20:11:15.566Z,96395.53
2022-12-31T20:13:42.920Z,96413.31
2022-12-31T20:16:15.740Z,96404.06
2022-12-31T20:18:44.314Z,96390.16
2022-12-31T20:21:13.255Z,96392.88
2022-12-31T20:23:40.414Z,96399.03
2022-12-31T20:26:07.075Z,96395.56
2022-12-31T20:28:33.741Z,96386.72
2022-12-31T20:31:14.551Z,96396.34
2022-12-31T20:33:41.636Z,96376.69
2022-12-31T20:36:11.581Z,96386.72
2022-12-31T20:38:38.658Z,96401.34
2022-12-31T20:41:10.234Z,96389.00
2022-12-31T20:43:37.498Z,96383.97
2022-12-31T20:46:15.547Z,96400.53
2022-12-31T20:48:43.989Z,96397.78
2022-12-31T20:51:11.667Z,96398.19
2022-12-31T20:53:38.552Z,96399.31
2022-12-31T20:56:09.559Z,96377.34
2022-12-31T20:58:36.659Z,96391.22
2022-12-31T21:01:07.048Z,96381.19
2022-12-31T21:06:25.663Z,96387.75
2022-12-31T21:08:52.558Z,96378.84
2022-12-31T21:11:37.652Z,96385.41
2022-12-31T21:14:04.511Z,96370.03
2022-12-31T21:16:31.854Z,96375.81
2022-12-31T21:18:58.795Z,96401.75
2022-12-31T21:21:25.549Z,96395.97
2022-12-31T21:23:52.445Z,96399.81
2022-12-31T21:26:19.584Z,96401.00
2022-12-31T21:28:46.394Z,96388.25
2022-12-31T21:31:14.470Z,96392.88
2022-12-31T21:33:45.504Z,96396.72
2022-12-31T21:36:12.622Z,96404.06
2022-12-31T21:38:39.682Z,96407.91
2022-12-31T21:41:08.526Z,96406.38
2022-12-31T21:43:35.323Z,96388.63
2022-12-31T21:46:04.192Z,96394.06
2022-12-31T21:48:31.351Z,96405.63
2022-12-31T21:51:10.001Z,96397.91
2022-12-31T21:53:37.660Z,96401.00
2022-12-31T21:56:08.285Z,96409.47
2022-12-31T21:58:36.485Z,96390.97
2022-12-31T22:01:22.057Z,96411.41
2022-12-31T22:03:48.802Z,96411.00
2022-12-31T22:06:22.372Z,96419.03
2022-12-31T22:08:59.390Z,96409.03
2022-12-31T22:11:28.244Z,96405.53
2022-12-31T22:13:55.361Z,96413.25
2022-12-31T22:16:22.724Z,96416.31
2022-12-31T22:18:49.871Z,96415.56
2022-12-31T22:21:21.686Z,96414.41
2022-12-31T22:23:50.868Z,96405.53
2022-12-31T22:26:20.019Z,96408.19
2022-12-31T22:28:47.143Z,96415.16
2022-12-31T22:31:19.593Z,96412.06
2022-12-31T22:33:47.503Z,96435.19
2022-12-31T22:36:18.073Z,96445.97
2022-12-31T22:38:45.512Z,96421.09
2022-12-31T22:41:15.143Z,96451.94
2022-12-31T22:43:44.643Z,96452.22
2022-12-31T22:46:12.910Z,96448.81
2022-12-31T22:48:40.543Z,96441.84
2022-12-31T22:51:09.978Z,96436.09
2022-12-31T22:53:38.615Z,96431.88
2022-12-31T22:56:06.079Z,96438.41
2022-12-31T22:58:32.862Z,96437.25
2022-12-31T23:00:59.628Z,96435.22
2022-12-31T23:03:26.338Z,96449.47
2022-12-31T23:05:53.050Z,96446.41
2022-12-31T23:08:23.355Z,96447.53
2022-12-31T23:11:01.655Z,96445.56
2022-12-31T23:13:50.890Z,96443.63
2022-12-31T23:16:36.970Z,96422.47
2022-12-31T23:19:22.577Z,96439.72
2022-12-31T23:22:07.792Z,96423.94
2022-12-31T23:24:34.666Z,96407.75
2022-12-31T23:27:01.412Z,96420.16
2022-12-31T23:29:28.212Z,96418.94
2022-12-31T23:31:54.959Z,96421.59
2022-12-31T23:34:21.799Z,96407.75
2022-12-31T23:36:48.544Z,96400.03
2022-12-31T23:39:15.485Z,96413.91
2022-12-31T23:41:42.260Z,96413.16
2022-12-31T23:44:11.981Z,96387.34
2022-12-31T23:46:39.816Z,96408.63
2022-12-31T23:49:06.892Z,96414.84
2022-12-31T23:51:33.529Z,96419.03
2022-12-31T23:54:00.935Z,96433.31
2022-12-31T23:56:27.570Z,96406.19
2022-12-31T23:58:55.714Z,96439.47
